createdAt,value
2023-01-04T00:01:50.247Z,78.32
2023-01-04T00:04:16.754Z,77.52
2023-01-04T00:06:43.417Z,78.62
2023-01-04T00:09:09.826Z,77.45
2023-01-04T00:11:36.260Z,78.39
2023-01-04T00:14:02.944Z,78.03
2023-01-04T00:16:29.999Z,77.22
2023-01-04T00:18:57.370Z,78.34
2023-01-04T00:21:27.014Z,78.53
2023-01-04T00:23:55.161Z,78.74
2023-01-04T00:26:35.228Z,78.20
2023-01-04T00:29:05.490Z,78.22
2023-01-04T00:31:32.699Z,77.56
2023-01-04T00:34:01.903Z,77.58
2023-01-04T00:36:28.884Z,77.18
2023-01-04T00:39:08.408Z,76.88
2023-01-04T00:41:57.930Z,76.74
2023-01-04T00:44:21.921Z,77.86
2023-01-04T00:46:48.731Z,77.66
2023-01-04T00:49:15.191Z,78.28
2023-01-04T00:51:42.186Z,77.63
2023-01-04T00:54:13.694Z,78.10
2023-01-04T00:56:40.102Z,77.18
2023-01-04T00:59:06.580Z,78.12
2023-01-04T01:01:34.302Z,78.74
2023-01-04T01:04:02.916Z,77.72
2023-01-04T01:06:31.039Z,78.99
2023-01-04T01:08:58.216Z,77.61
2023-01-04T01:11:25.301Z,79.16
2023-01-04T01:13:52.366Z,77.41
2023-01-04T01:16:44.282Z,78.24
2023-01-04T01:19:07.993Z,77.56
2023-01-04T01:21:34.535Z,77.58
2023-01-04T01:24:00.975Z,77.33
2023-01-04T01:26:27.427Z,77.69
2023-01-04T01:28:53.852Z,77.05
2023-01-04T01:31:28.236Z,76.59
2023-01-04T01:33:56.288Z,77.66
2023-01-04T01:36:25.232Z,76.00
2023-01-04T01:38:51.817Z,76.27
2023-01-04T01:41:32.214Z,76.04
2023-01-04T01:44:02.051Z,76.64
2023-01-04T01:46:38.617Z,77.04
2023-01-04T01:49:13.083Z,76.63
2023-01-04T01:51:41.466Z,77.68
2023-01-04T01:54:13.326Z,78.46
2023-01-04T01:56:42.422Z,77.73
2023-01-04T01:59:11.072Z,77.79
2023-01-04T02:01:37.659Z,78.76
2023-01-04T02:04:05.443Z,76.46
2023-01-04T02:06:40.690Z,78.26
2023-01-04T02:09:08.139Z,76.18
2023-01-04T02:11:34.544Z,77.87
2023-01-04T02:14:22.090Z,76.68
2023-01-04T02:17:10.110Z,77.58
2023-01-04T02:20:06.995Z,77.90
2023-01-04T02:22:52.049Z,78.25
2023-01-04T02:25:39.795Z,78.12
2023-01-04T02:28:38.992Z,78.28
2023-01-04T02:31:21.538Z,78.67
2023-01-04T02:34:12.039Z,77.86
2023-01-04T02:37:03.806Z,77.88
2023-01-04T02:40:05.133Z,77.29
2023-01-04T02:43:19.179Z,77.80
2023-01-04T02:45:54.211Z,77.44
2023-01-04T02:48:38.992Z,78.55
2023-01-04T02:51:05.598Z,77.67
2023-01-04T02:53:37.338Z,77.30
2023-01-04T02:56:06.736Z,77.38
2023-01-04T02:58:51.776Z,77.43
2023-01-04T03:01:55.276Z,77.00
2023-01-04T03:05:06.554Z,76.93
2023-01-04T03:07:35.768Z,77.57
2023-01-04T03:10:32.872Z,76.82
2023-01-04T03:13:28.329Z,76.87
2023-01-04T03:16:01.212Z,77.82
2023-01-04T03:18:31.879Z,76.82
2023-01-04T03:21:01.314Z,76.39
2023-01-04T03:23:51.000Z,77.60
2023-01-04T03:26:41.734Z,77.67
2023-01-04T03:29:36.495Z,77.14
2023-01-04T03:32:27.323Z,76.56
2023-01-04T03:35:13.561Z,76.57
2023-01-04T03:37:51.452Z,76.15
2023-01-04T03:40:39.753Z,76.11
2023-01-04T03:43:31.589Z,75.57
2023-01-04T03:46:21.005Z,76.36
2023-01-04T03:48:57.483Z,77.67
2023-01-04T03:51:29.681Z,76.79
2023-01-04T03:54:05.855Z,78.01
2023-01-04T03:56:35.598Z,76.70
2023-01-04T03:59:02.275Z,77.36
2023-01-04T04:01:29.126Z,76.56
2023-01-04T04:04:14.803Z,76.38
2023-01-04T04:07:00.070Z,78.04
2023-01-04T04:09:26.495Z,76.76
2023-01-04T04:11:52.933Z,76.49
2023-01-04T04:14:19.377Z,77.21
2023-01-04T04:16:45.918Z,76.17
2023-01-04T04:19:12.492Z,77.33
2023-01-04T04:21:38.990Z,76.64
2023-01-04T04:24:06.177Z,76.16
2023-01-04T04:26:32.619Z,76.21
2023-01-04T04:28:59.087Z,77.65
2023-01-04T04:31:25.565Z,77.91
2023-01-04T04:33:52.033Z,77.92
2023-01-04T04:36:18.495Z,76.78
2023-01-04T04:38:44.919Z,77.33
2023-01-04T04:41:32.354Z,76.45
2023-01-04T04:43:59.175Z,76.27
2023-01-04T04:46:25.729Z,76.41
2023-01-04T04:48:52.235Z,76.11
2023-01-04T04:51:18.872Z,76.78
2023-01-04T04:53:45.651Z,77.72
2023-01-04T04:56:12.342Z,76.38
2023-01-04T04:58:38.882Z,76.05
2023-01-04T05:01:06.038Z,77.38
2023-01-04T05:03:33.278Z,76.66
2023-01-04T05:06:00.029Z,76.39
2023-01-04T05:08:26.691Z,77.50
2023-01-04T05:10:53.190Z,77.61
2023-01-04T05:13:19.678Z,77.13
2023-01-04T05:15:49.054Z,76.67
2023-01-04T05:18:18.149Z,76.19
2023-01-04T05:20:45.160Z,76.11
2023-01-04T05:23:13.725Z,76.52
2023-01-04T05:25:40.443Z,76.32
2023-01-04T05:28:08.393Z,75.93
2023-01-04T05:30:53.652Z,77.31
2023-01-04T05:33:28.227Z,76.24
2023-01-04T05:35:55.768Z,75.68
2023-01-04T05:38:22.793Z,76.86
2023-01-04T05:40:50.388Z,75.90
2023-01-04T05:43:18.544Z,76.29
2023-01-04T05:45:49.003Z,76.16
2023-01-04T05:48:15.984Z,77.12
2023-01-04T05:50:42.570Z,77.01
2023-01-04T05:53:09.040Z,76.29
2023-01-04T05:55:35.481Z,76.24
2023-01-04T05:58:01.945Z,77.03
2023-01-04T06:00:28.778Z,77.15
2023-01-04T06:02:56.997Z,75.63
2023-01-04T06:05:25.016Z,77.16
2023-01-04T06:07:51.626Z,77.09
2023-01-04T06:10:19.536Z,76.36
2023-01-04T06:12:47.168Z,76.80
2023-01-04T06:15:14.235Z,76.29
2023-01-04T06:17:41.251Z,77.14
2023-01-04T06:20:10.558Z,76.23
2023-01-04T06:22:37.313Z,76.12
2023-01-04T06:25:04.797Z,77.28
2023-01-04T06:27:31.241Z,77.69
2023-01-04T06:29:57.762Z,77.65
2023-01-04T06:32:24.287Z,77.10
2023-01-04T06:34:50.809Z,75.89
2023-01-04T06:37:17.283Z,77.46
2023-01-04T06:39:43.713Z,77.78
2023-01-04T06:42:30.060Z,76.85
2023-01-04T06:44:56.575Z,77.44
2023-01-04T06:47:22.996Z,77.84
2023-01-04T06:49:49.461Z,78.63
2023-01-04T06:52:15.907Z,78.41
2023-01-04T06:54:42.299Z,79.78
2023-01-04T06:57:08.787Z,79.41
2023-01-04T06:59:35.257Z,79.78
2023-01-04T07:02:01.788Z,79.49
2023-01-04T07:04:28.292Z,80.06
2023-01-04T07:06:54.797Z,79.66
2023-01-04T07:09:21.337Z,79.74
2023-01-04T07:11:47.778Z,80.25
2023-01-04T07:14:14.281Z,80.83
2023-01-04T07:16:40.741Z,80.88
2023-01-04T07:19:08.444Z,81.43
2023-01-04T07:21:34.929Z,81.28
2023-01-04T07:24:01.308Z,81.58
2023-01-04T07:26:27.720Z,81.00
2023-01-04T07:29:12.839Z,81.06
2023-01-04T07:31:39.270Z,81.65
2023-01-04T07:34:06.156Z,82.36
2023-01-04T07:36:32.633Z,81.66
2023-01-04T07:39:00.233Z,82.55
2023-01-04T07:41:26.707Z,82.02
2023-01-04T07:43:53.372Z,82.55
2023-01-04T07:46:21.751Z,82.11
2023-01-04T07:48:48.208Z,82.80
2023-01-04T07:51:14.772Z,82.67
2023-01-04T07:53:41.175Z,82.62
2023-01-04T07:56:09.477Z,82.70
2023-01-04T07:58:39.874Z,82.94
2023-01-04T08:01:11.667Z,82.29
2023-01-04T08:03:38.237Z,83.19
2023-01-04T08:06:10.597Z,83.23
2023-01-04T08:08:37.578Z,83.23
2023-01-04T08:11:06.406Z,83.42
2023-01-04T08:13:33.430Z,82.57
2023-01-04T08:15:59.927Z,82.89
2023-01-04T08:18:26.561Z,83.36
2023-01-04T08:21:04.405Z,83.35
2023-01-04T08:23:31.343Z,83.57
2023-01-04T08:26:03.022Z,83.48
2023-01-04T08:28:29.443Z,84.16
2023-01-04T08:30:55.845Z,83.85
2023-01-04T08:33:22.264Z,84.11
2023-01-04T08:35:48.680Z,83.91
2023-01-04T08:38:56.080Z,83.69
2023-01-04T08:41:23.113Z,84.85
2023-01-04T08:43:49.076Z,84.61
2023-01-04T08:46:15.926Z,83.64
2023-01-04T08:48:42.938Z,83.82
2023-01-04T08:51:12.048Z,83.28
2023-01-04T08:53:38.539Z,83.92
2023-01-04T08:56:06.655Z,84.05
2023-01-04T08:58:34.012Z,84.29
2023-01-04T09:01:06.487Z,84.66
2023-01-04T09:03:33.869Z,84.33
2023-01-04T09:06:09.924Z,84.83
2023-01-04T09:08:38.675Z,84.75
2023-01-04T09:11:11.156Z,84.61
2023-01-04T09:13:37.875Z,84.42
2023-01-04T09:16:07.226Z,84.75
2023-01-04T09:18:34.705Z,85.59
2023-01-04T09:21:13.415Z,84.65
2023-01-04T09:23:40.750Z,84.81
2023-01-04T09:26:14.904Z,84.68
2023-01-04T09:28:42.686Z,85.26
2023-01-04T09:31:14.667Z,84.52
2023-01-04T09:34:12.952Z,84.55
2023-01-04T09:36:28.734Z,84.95
2023-01-04T09:38:55.659Z,85.31
2023-01-04T09:41:34.620Z,85.23
2023-01-04T09:44:04.885Z,85.12
2023-01-04T09:46:46.645Z,85.34
2023-01-04T09:49:32.035Z,84.91
2023-01-04T09:52:21.952Z,85.31
2023-01-04T09:55:04.859Z,85.47
2023-01-04T09:57:55.383Z,85.57
2023-01-04T10:00:30.215Z,84.92
2023-01-04T10:03:11.939Z,86.16
2023-01-04T10:05:40.094Z,85.72
2023-01-04T10:08:16.259Z,85.88
2023-01-04T10:10:56.306Z,85.23
2023-01-04T10:13:36.786Z,85.43
2023-01-04T10:16:06.238Z,85.85
2023-01-04T10:21:54.025Z,85.72
2023-01-04T10:24:42.338Z,85.58
2023-01-04T10:27:42.995Z,85.26
2023-01-04T10:30:44.275Z,86.21
2023-01-04T10:33:21.271Z,86.32
2023-01-04T10:35:48.685Z,86.27
2023-01-04T10:38:28.007Z,86.48
2023-01-04T10:40:57.841Z,86.23
2023-01-04T10:44:10.989Z,86.32
2023-01-04T10:46:45.447Z,85.86
2023-01-04T10:49:23.141Z,86.65
2023-01-04T10:52:15.721Z,86.45
2023-01-04T10:54:55.054Z,86.26
2023-01-04T10:57:37.013Z,86.17
2023-01-04T11:00:21.866Z,86.63
2023-01-04T11:03:12.325Z,86.50
2023-01-04T11:05:54.305Z,86.58
2023-01-04T11:08:23.247Z,86.14
2023-01-04T11:11:08.187Z,86.18
2023-01-04T11:13:35.336Z,86.88
2023-01-04T11:16:05.359Z,87.06
2023-01-04T11:18:35.383Z,86.61
2023-01-04T11:21:06.396Z,86.78
2023-01-04T11:23:32.796Z,86.22
2023-01-04T11:26:05.932Z,86.04
2023-01-04T11:28:45.933Z,86.59
2023-01-04T11:31:23.167Z,86.52
2023-01-04T11:33:57.193Z,87.75
2023-01-04T11:36:34.609Z,87.36
2023-01-04T11:39:01.147Z,87.56
2023-01-04T11:41:28.081Z,86.85
2023-01-04T11:44:05.183Z,86.98
2023-01-04T11:46:33.915Z,88.05
2023-01-04T11:49:00.418Z,88.00
2023-01-04T11:51:26.834Z,87.61
2023-01-04T11:53:57.571Z,88.38
2023-01-04T11:56:26.515Z,88.31
2023-01-04T11:59:20.924Z,88.17
2023-01-04T12:02:10.817Z,87.43
2023-01-04T12:04:37.457Z,88.48
2023-01-04T12:07:13.822Z,87.28
2023-01-04T12:09:40.299Z,88.62
2023-01-04T12:12:12.348Z,87.69
2023-01-04T12:14:48.236Z,88.73
2023-01-04T12:17:38.056Z,87.80
2023-01-04T12:20:21.003Z,88.32
2023-01-04T12:22:47.800Z,88.90
2023-01-04T12:25:23.509Z,87.62
2023-01-04T12:27:51.810Z,87.97
2023-01-04T12:30:37.315Z,88.14
2023-01-04T12:33:31.715Z,88.98
2023-01-04T12:36:04.056Z,89.29
2023-01-04T12:39:05.017Z,87.86
2023-01-04T12:41:34.202Z,88.59
2023-01-04T12:44:02.057Z,87.91
2023-01-04T12:46:46.984Z,88.86
2023-01-04T12:49:28.494Z,89.24
2023-01-04T12:52:31.948Z,88.12
2023-01-04T12:55:02.881Z,88.22
2023-01-04T12:57:37.894Z,88.75
2023-01-04T13:00:16.291Z,88.16
2023-01-04T13:02:48.049Z,88.44
2023-01-04T13:08:11.230Z,87.64
2023-01-04T13:10:49.931Z,87.76
2023-01-04T13:13:34.544Z,89.35
2023-01-04T13:16:20.228Z,89.61
2023-01-04T13:18:50.413Z,88.93
2023-01-04T13:21:25.832Z,87.85
2023-01-04T13:23:55.604Z,89.12
2023-01-04T13:26:28.089Z,88.72
2023-01-04T13:29:15.878Z,88.39
2023-01-04T13:31:50.156Z,89.99
2023-01-04T13:34:21.727Z,89.39
2023-01-04T13:36:56.801Z,89.46
2023-01-04T13:39:24.199Z,89.58
2023-01-04T13:41:52.817Z,89.48
2023-01-04T13:47:44.912Z,88.62
2023-01-04T13:50:31.283Z,88.87
2023-01-04T13:53:08.196Z,87.75
2023-01-04T13:55:37.907Z,89.17
2023-01-04T13:58:07.466Z,87.92
2023-01-04T14:00:45.131Z,87.98
2023-01-04T14:03:25.142Z,88.80
2023-01-04T14:05:59.887Z,89.29
2023-01-04T14:08:38.622Z,88.57
2023-01-04T14:11:15.770Z,87.62
2023-01-04T14:13:48.075Z,89.33
2023-01-04T14:16:15.288Z,87.80
2023-01-04T14:18:41.864Z,88.99
2023-01-04T14:21:17.545Z,88.66
2023-01-04T14:23:44.121Z,88.07
2023-01-04T14:26:30.369Z,88.91
2023-01-04T14:28:56.795Z,87.93
2023-01-04T14:31:28.096Z,88.58
2023-01-04T14:33:55.121Z,88.32
2023-01-04T14:36:28.055Z,88.70
2023-01-04T14:38:57.026Z,87.93
2023-01-04T14:41:31.362Z,87.85
2023-01-04T14:44:00.785Z,88.36
2023-01-04T14:46:32.080Z,89.15
2023-01-04T14:48:58.944Z,88.80
2023-01-04T14:51:38.039Z,89.57
2023-01-04T14:54:06.477Z,89.13
2023-01-04T14:56:33.802Z,88.52
2023-01-04T14:59:00.668Z,89.12
2023-01-04T15:01:28.221Z,88.27
2023-01-04T15:03:54.725Z,88.93
2023-01-04T15:06:21.181Z,88.20
2023-01-04T15:08:48.634Z,87.98
2023-01-04T15:11:15.750Z,88.79
2023-01-04T15:13:42.198Z,88.80
2023-01-04T15:16:12.623Z,89.39
2023-01-04T15:18:40.382Z,88.84
2023-01-04T15:21:06.968Z,89.54
2023-01-04T15:23:33.475Z,90.45
2023-01-04T15:26:01.751Z,88.36
2023-01-04T15:28:28.256Z,90.25
2023-01-04T15:30:54.785Z,88.22
2023-01-04T15:33:21.208Z,88.75
2023-01-04T15:35:47.773Z,89.95
2023-01-04T15:38:18.441Z,88.64
2023-01-04T15:40:45.148Z,90.18
2023-01-04T15:43:11.937Z,89.71
2023-01-04T15:45:39.859Z,90.13
2023-01-04T15:48:09.479Z,89.66
2023-01-04T15:50:38.645Z,89.50
2023-01-04T15:53:09.534Z,90.16
2023-01-04T15:55:37.493Z,89.81
2023-01-04T15:58:05.751Z,90.03
2023-01-04T16:00:32.878Z,89.90
2023-01-04T16:02:59.429Z,88.24
2023-01-04T16:05:26.085Z,89.77
2023-01-04T16:07:52.548Z,89.30
2023-01-04T16:10:19.051Z,89.96
2023-01-04T16:12:49.855Z,88.52
2023-01-04T16:15:21.549Z,88.62
2023-01-04T16:17:48.862Z,88.79
2023-01-04T16:20:17.957Z,90.34
2023-01-04T16:22:44.855Z,89.57
2023-01-04T16:25:12.375Z,90.81
2023-01-04T16:27:39.678Z,90.45
2023-01-04T16:30:09.308Z,90.43
2023-01-04T16:32:36.473Z,91.43
2023-01-04T16:35:03.461Z,89.59
2023-01-04T16:37:30.621Z,89.94
2023-01-04T16:40:06.216Z,90.62
2023-01-04T16:42:33.701Z,89.74
2023-01-04T16:45:00.272Z,91.62
2023-01-04T16:47:26.721Z,90.40
2023-01-04T16:49:53.539Z,91.26
2023-01-04T16:52:20.221Z,90.98
2023-01-04T16:54:46.702Z,91.03
2023-01-04T16:57:13.153Z,90.75
2023-01-04T16:59:39.695Z,91.25
2023-01-04T17:02:06.385Z,89.73
2023-01-04T17:04:33.048Z,90.51
2023-01-04T17:06:59.707Z,90.93
2023-01-04T17:09:26.230Z,90.76
2023-01-04T17:14:49.112Z,90.89
2023-01-04T17:17:23.819Z,89.93
2023-01-04T17:19:50.301Z,89.81
2023-01-04T17:22:16.933Z,90.97
2023-01-04T17:24:43.408Z,89.36
2023-01-04T17:27:10.724Z,89.06
2023-01-04T17:29:37.203Z,90.76
2023-01-04T17:32:03.894Z,90.26
2023-01-04T17:34:30.385Z,89.93
2023-01-04T17:36:56.858Z,90.05
2023-01-04T17:39:23.315Z,90.11
2023-01-04T17:41:49.859Z,88.40
2023-01-04T17:44:16.312Z,90.02
2023-01-04T17:46:43.294Z,90.22
2023-01-04T17:49:31.866Z,89.23
2023-01-04T17:51:59.116Z,89.18
2023-01-04T17:54:26.750Z,89.38
2023-01-04T17:56:53.261Z,90.35
2023-01-04T17:59:19.753Z,91.11
2023-01-04T18:01:46.193Z,90.93
2023-01-04T18:04:13.007Z,89.39
2023-01-04T18:06:39.877Z,90.26
2023-01-04T18:09:08.081Z,89.42
2023-01-04T18:11:35.757Z,90.53
2023-01-04T18:14:05.834Z,90.23
2023-01-04T18:16:56.215Z,90.10
2023-01-04T18:19:29.045Z,88.99
2023-01-04T18:21:56.614Z,89.28
2023-01-04T18:24:39.298Z,88.86
2023-01-04T18:27:25.505Z,89.63
2023-01-04T18:29:53.765Z,89.93
2023-01-04T18:32:20.853Z,89.08
2023-01-04T18:34:47.438Z,89.05
2023-01-04T18:37:15.624Z,90.46
2023-01-04T18:39:42.139Z,90.60
2023-01-04T18:42:08.609Z,90.13
2023-01-04T18:44:35.981Z,90.05
2023-01-04T18:47:03.635Z,90.67
2023-01-04T18:49:30.243Z,90.54
2023-01-04T18:51:56.960Z,89.81
2023-01-04T18:54:23.501Z,90.64
2023-01-04T18:56:51.288Z,89.87
2023-01-04T18:59:19.787Z,91.39
2023-01-04T19:01:46.540Z,90.90
2023-01-04T19:04:16.068Z,89.91
2023-01-04T19:06:42.967Z,89.41
2023-01-04T19:09:09.537Z,88.27
2023-01-04T19:11:36.181Z,89.24
2023-01-04T19:14:03.557Z,90.19
2023-01-04T19:16:31.480Z,88.55
2023-01-04T19:19:01.383Z,89.83
2023-01-04T19:21:28.689Z,88.39
2023-01-04T19:23:55.395Z,89.56
2023-01-04T19:26:22.647Z,88.83
2023-01-04T19:28:49.443Z,89.24
2023-01-04T19:31:17.679Z,89.64
2023-01-04T19:33:44.984Z,89.82
2023-01-04T19:36:13.337Z,90.67
2023-01-04T19:38:40.386Z,89.65
2023-01-04T19:41:07.913Z,90.69
2023-01-04T19:43:35.271Z,89.95
2023-01-04T19:46:01.839Z,90.18
2023-01-04T19:48:28.753Z,89.90
2023-01-04T19:51:21.254Z,90.57
2023-01-04T19:53:47.734Z,89.90
2023-01-04T19:56:16.129Z,90.36
2023-01-04T19:58:42.945Z,89.75
2023-01-04T20:01:18.535Z,89.71
2023-01-04T20:03:45.405Z,89.92
2023-01-04T20:06:13.160Z,88.78
2023-01-04T20:08:40.567Z,89.15
2023-01-04T20:11:08.605Z,89.35
2023-01-04T20:13:35.569Z,87.70
2023-01-04T20:16:04.920Z,88.75
2023-01-04T20:18:32.252Z,88.62
2023-01-04T20:20:59.084Z,88.21
2023-01-04T20:23:25.955Z,87.20
2023-01-04T20:25:54.072Z,87.99
2023-01-04T20:28:23.862Z,86.11
2023-01-04T20:31:04.164Z,87.35
2023-01-04T20:33:30.865Z,86.30
2023-01-04T20:35:57.606Z,86.79
2023-01-04T20:38:24.463Z,87.49
2023-01-04T20:40:50.889Z,87.36
2023-01-04T20:43:36.283Z,85.97
2023-01-04T20:46:08.893Z,85.94
2023-01-04T20:48:35.357Z,86.02
2023-01-04T20:51:06.977Z,87.26
2023-01-04T20:53:33.868Z,86.00
2023-01-04T20:56:08.519Z,87.60
2023-01-04T20:58:35.321Z,87.21
2023-01-04T21:01:04.218Z,86.94
2023-01-04T21:03:30.893Z,86.62
2023-01-04T21:06:00.963Z,86.68
2023-01-04T21:08:27.422Z,86.75
2023-01-04T21:10:53.875Z,85.31
2023-01-04T21:13:20.370Z,86.00
2023-01-04T21:15:46.850Z,85.08
2023-01-04T21:18:13.551Z,85.55
2023-01-04T21:20:43.749Z,85.11
2023-01-04T21:23:21.863Z,85.26
2023-01-04T21:25:51.873Z,85.51
2023-01-04T21:28:21.185Z,85.27
2023-01-04T21:30:49.508Z,85.14
2023-01-04T21:33:16.393Z,85.05
2023-01-04T21:35:43.148Z,83.89
2023-01-04T21:38:11.264Z,84.96
2023-01-04T21:40:39.733Z,84.00
2023-01-04T21:43:07.139Z,84.59
2023-01-04T21:45:38.334Z,85.34
2023-01-04T21:48:04.978Z,85.05
2023-01-04T21:50:32.135Z,85.61
2023-01-04T21:53:00.017Z,85.50
2023-01-04T21:55:32.402Z,84.75
2023-01-04T21:58:00.818Z,85.20
2023-01-04T22:00:27.289Z,84.25
2023-01-04T22:02:53.856Z,85.58
2023-01-04T22:05:20.417Z,85.14
2023-01-04T22:07:46.931Z,84.45
2023-01-04T22:10:13.392Z,83.55
2023-01-04T22:12:40.081Z,83.60
2023-01-04T22:15:07.213Z,81.61
2023-01-04T22:17:33.628Z,83.18
2023-01-04T22:20:00.169Z,81.10
2023-01-04T22:22:29.352Z,81.96
2023-01-04T22:24:55.718Z,82.94
2023-01-04T22:27:22.126Z,82.18
2023-01-04T22:29:48.516Z,82.23
2023-01-04T22:32:14.984Z,82.26
2023-01-04T22:34:42.038Z,82.48
2023-01-04T22:37:08.442Z,82.90
2023-01-04T22:39:34.833Z,84.00
2023-01-04T22:42:01.267Z,83.69
2023-01-04T22:44:27.669Z,83.12
2023-01-04T22:46:54.188Z,84.03
2023-01-04T22:49:20.614Z,83.74
2023-01-04T22:51:47.029Z,83.41
2023-01-04T22:54:13.621Z,82.56
2023-01-04T22:56:40.104Z,83.85
2023-01-04T22:59:06.492Z,82.85
2023-01-04T23:01:34.156Z,82.12
2023-01-04T23:04:01.891Z,83.49
2023-01-04T23:06:30.598Z,83.24
2023-01-04T23:09:07.844Z,82.49
2023-01-04T23:11:35.483Z,82.84
2023-01-04T23:14:03.802Z,83.71
2023-01-04T23:16:32.958Z,82.89
2023-01-04T23:19:01.874Z,83.30
2023-01-04T23:21:28.941Z,84.83
2023-01-04T23:23:55.438Z,83.79
2023-01-04T23:26:23.724Z,82.65
2023-01-04T23:28:50.847Z,82.64
2023-01-04T23:31:23.533Z,82.54
2023-01-04T23:33:58.284Z,82.44
2023-01-04T23:36:27.813Z,82.86
2023-01-04T23:39:00.745Z,83.11
2023-01-04T23:41:46.290Z,83.18
2023-01-04T23:44:15.916Z,82.87
2023-01-04T23:46:42.546Z,81.32
2023-01-04T23:49:09.648Z,81.56
2023-01-04T23:51:36.062Z,82.27
2023-01-04T23:54:02.442Z,81.51
2023-01-04T23:56:30.181Z,82.47
2023-01-04T23:58:56.545Z,82.59
